sensor_id;sensor_type;location;lat;lon;timestamp;P1;durP1;ratioP1;P2;durP2;ratioP2
78108;SDS011;67354;48.068;11.612;2023-02-28T00:00:31;4.55;;;2.88;;
78108;SDS011;67354;48.068;11.612;2023-02-28T00:02:56;4.18;;;2.63;;
78108;SDS011;67354;48.068;11.612;2023-02-28T00:05:23;4.18;;;2.92;;
78108;SDS011;67354;48.068;11.612;2023-02-28T00:07:49;4.95;;;2.58;;
78108;SDS011;67354;48.068;11.612;2023-02-28T00:10:17;5.75;;;3.38;;
78108;SDS011;67354;48.068;11.612;2023-02-28T00:12:48;5.57;;;2.88;;
78108;SDS011;67354;48.068;11.612;2023-02-28T00:15:14;3.50;;;2.85;;
78108;SDS011;67354;48.068;11.612;2023-02-28T00:17:39;5.20;;;2.80;;
78108;SDS011;67354;48.068;11.612;2023-02-28T00:20:05;4.63;;;2.88;;
78108;SDS011;67354;48.068;11.612;2023-02-28T00:22:33;4.88;;;2.58;;
78108;SDS011;67354;48.068;11.612;2023-02-28T00:24:59;4.68;;;3.10;;
78108;SDS011;67354;48.068;11.612;2023-02-28T00:27:24;4.70;;;3.30;;
78108;SDS011;67354;48.068;11.612;2023-02-28T00:29:49;5.72;;;2.72;;
78108;SDS011;67354;48.068;11.612;2023-02-28T00:32:15;3.77;;;3.00;;
78108;SDS011;67354;48.068;11.612;2023-02-28T00:34:40;4.50;;;3.15;;
78108;SDS011;67354;48.068;11.612;2023-02-28T00:37:06;4.15;;;3.20;;
78108;SDS011;67354;48.068;11.612;2023-02-28T00:39:33;4.22;;;2.65;;
78108;SDS011;67354;48.068;11.612;2023-02-28T00:42:00;5.00;;;3.40;;
78108;SDS011;67354;48.068;11.612;2023-02-28T00:44:25;4.35;;;2.90;;
78108;SDS011;67354;48.068;11.612;2023-02-28T00:46:50;3.88;;;2.88;;
78108;SDS011;67354;48.068;11.612;2023-02-28T00:49:16;5.93;;;2.90;;
78108;SDS011;67354;48.068;11.612;2023-02-28T00:51:42;4.72;;;3.05;;
78108;SDS011;67354;48.068;11.612;2023-02-28T00:54:07;4.47;;;3.03;;
78108;SDS011;67354;48.068;11.612;2023-02-28T00:56:33;4.80;;;3.17;;
78108;SDS011;67354;48.068;11.612;2023-02-28T00:58:58;5.23;;;2.80;;
78108;SDS011;67354;48.068;11.612;2023-02-28T01:01:23;6.03;;;3.30;;
78108;SDS011;67354;48.068;11.612;2023-02-28T01:03:49;6.50;;;3.57;;
78108;SDS011;67354;48.068;11.612;2023-02-28T01:06:14;4.30;;;3.05;;
78108;SDS011;67354;48.068;11.612;2023-02-28T01:08:39;5.40;;;3.70;;
78108;SDS011;67354;48.068;11.612;2023-02-28T01:11:09;6.57;;;3.65;;
78108;SDS011;67354;48.068;11.612;2023-02-28T01:13:35;5.28;;;3.10;;
78108;SDS011;67354;48.068;11.612;2023-02-28T01:16:01;4.60;;;3.25;;
78108;SDS011;67354;48.068;11.612;2023-02-28T01:18:26;6.50;;;3.57;;
78108;SDS011;67354;48.068;11.612;2023-02-28T01:20:52;5.05;;;3.42;;
78108;SDS011;67354;48.068;11.612;2023-02-28T01:23:18;5.13;;;3.03;;
78108;SDS011;67354;48.068;11.612;2023-02-28T01:25:45;4.85;;;3.30;;
78108;SDS011;67354;48.068;11.612;2023-02-28T01:28:10;4.05;;;2.92;;
78108;SDS011;67354;48.068;11.612;2023-02-28T01:30:35;5.87;;;3.20;;
78108;SDS011;67354;48.068;11.612;2023-02-28T01:33:01;6.25;;;3.40;;
78108;SDS011;67354;48.068;11.612;2023-02-28T01:35:26;5.13;;;3.60;;
78108;SDS011;67354;48.068;11.612;2023-02-28T01:37:51;5.30;;;3.50;;
78108;SDS011;67354;48.068;11.612;2023-02-28T01:40:17;5.80;;;3.50;;
78108;SDS011;67354;48.068;11.612;2023-02-28T01:42:42;6.95;;;4.38;;
78108;SDS011;67354;48.068;11.612;2023-02-28T01:45:22;7.27;;;4.03;;
78108;SDS011;67354;48.068;11.612;2023-02-28T01:47:52;3.60;;;2.83;;
78108;SDS011;67354;48.068;11.612;2023-02-28T01:50:21;6.70;;;3.83;;
78108;SDS011;67354;48.068;11.612;2023-02-28T01:52:48;5.80;;;3.70;;
78108;SDS011;67354;48.068;11.612;2023-02-28T01:55:15;5.50;;;3.95;;
78108;SDS011;67354;48.068;11.612;2023-02-28T01:57:45;6.13;;;3.70;;
78108;SDS011;67354;48.068;11.612;2023-02-28T02:00:13;4.38;;;3.05;;
78108;SDS011;67354;48.068;11.612;2023-02-28T02:02:42;5.05;;;3.38;;
78108;SDS011;67354;48.068;11.612;2023-02-28T02:05:10;5.72;;;3.80;;
78108;SDS011;67354;48.068;11.612;2023-02-28T02:07:41;6.78;;;4.00;;
78108;SDS011;67354;48.068;11.612;2023-02-28T02:10:15;4.57;;;3.33;;
78108;SDS011;67354;48.068;11.612;2023-02-28T02:15:32;6.03;;;3.80;;
78108;SDS011;67354;48.068;11.612;2023-02-28T02:18:04;5.43;;;3.65;;
78108;SDS011;67354;48.068;11.612;2023-02-28T02:37:47;5.03;;;3.80;;
78108;SDS011;67354;48.068;11.612;2023-02-28T02:39:52;6.35;;;2.95;;
78108;SDS011;67354;48.068;11.612;2023-02-28T02:42:21;5.22;;;3.45;;
78108;SDS011;67354;48.068;11.612;2023-02-28T02:45:09;5.90;;;3.53;;
78108;SDS011;67354;48.068;11.612;2023-02-28T02:47:37;5.65;;;3.35;;
78108;SDS011;67354;48.068;11.612;2023-02-28T02:50:05;5.70;;;3.63;;
78108;SDS011;67354;48.068;11.612;2023-02-28T02:52:44;4.25;;;3.50;;
78108;SDS011;67354;48.068;11.612;2023-02-28T02:55:13;6.43;;;3.80;;
78108;SDS011;67354;48.068;11.612;2023-02-28T02:57:45;6.68;;;3.53;;
78108;SDS011;67354;48.068;11.612;2023-02-28T03:00:12;5.57;;;3.72;;
78108;SDS011;67354;48.068;11.612;2023-02-28T03:02:39;5.72;;;3.85;;
78108;SDS011;67354;48.068;11.612;2023-02-28T03:05:06;6.95;;;4.22;;
78108;SDS011;67354;48.068;11.612;2023-02-28T03:07:37;7.10;;;4.10;;
78108;SDS011;67354;48.068;11.612;2023-02-28T03:10:03;6.40;;;3.97;;
78108;SDS011;67354;48.068;11.612;2023-02-28T03:15:48;6.63;;;3.97;;
78108;SDS011;67354;48.068;11.612;2023-02-28T03:21:24;4.10;;;2.47;;
78108;SDS011;67354;48.068;11.612;2023-02-28T03:24:07;6.43;;;4.20;;
78108;SDS011;67354;48.068;11.612;2023-02-28T03:26:34;5.57;;;3.78;;
78108;SDS011;67354;48.068;11.612;2023-02-28T03:31:44;6.10;;;3.83;;
78108;SDS011;67354;48.068;11.612;2023-02-28T03:37:33;8.88;;;3.80;;
78108;SDS011;67354;48.068;11.612;2023-02-28T03:40:03;6.60;;;4.43;;
78108;SDS011;67354;48.068;11.612;2023-02-28T03:42:33;5.20;;;4.28;;
78108;SDS011;67354;48.068;11.612;2023-02-28T03:45:02;7.22;;;4.72;;
78108;SDS011;67354;48.068;11.612;2023-02-28T03:47:37;6.22;;;3.80;;
78108;SDS011;67354;48.068;11.612;2023-02-28T03:50:10;8.27;;;3.72;;
78108;SDS011;67354;48.068;11.612;2023-02-28T03:52:49;7.63;;;4.50;;
78108;SDS011;67354;48.068;11.612;2023-02-28T03:55:17;6.30;;;3.97;;
78108;SDS011;67354;48.068;11.612;2023-02-28T03:57:53;6.93;;;4.05;;
78108;SDS011;67354;48.068;11.612;2023-02-28T04:00:25;8.07;;;3.03;;
78108;SDS011;67354;48.068;11.612;2023-02-28T04:02:53;6.65;;;4.63;;
78108;SDS011;67354;48.068;11.612;2023-02-28T04:05:19;6.75;;;3.90;;
78108;SDS011;67354;48.068;11.612;2023-02-28T04:07:46;7.35;;;4.55;;
78108;SDS011;67354;48.068;11.612;2023-02-28T04:10:11;7.60;;;4.80;;
78108;SDS011;67354;48.068;11.612;2023-02-28T04:12:37;5.85;;;4.05;;
78108;SDS011;67354;48.068;11.612;2023-02-28T04:15:02;7.57;;;4.60;;
78108;SDS011;67354;48.068;11.612;2023-02-28T04:17:28;6.88;;;3.97;;
78108;SDS011;67354;48.068;11.612;2023-02-28T04:19:53;8.10;;;4.67;;
78108;SDS011;67354;48.068;11.612;2023-02-28T04:22:21;7.18;;;4.72;;
78108;SDS011;67354;48.068;11.612;2023-02-28T04:24:46;7.27;;;3.63;;
78108;SDS011;67354;48.068;11.612;2023-02-28T04:27:12;10.15;;;5.28;;
78108;SDS011;67354;48.068;11.612;2023-02-28T04:29:37;8.73;;;5.47;;
78108;SDS011;67354;48.068;11.612;2023-02-28T04:32:03;7.13;;;4.93;;
78108;SDS011;67354;48.068;11.612;2023-02-28T04:34:29;7.35;;;4.43;;
78108;SDS011;67354;48.068;11.612;2023-02-28T04:36:56;8.73;;;5.10;;
78108;SDS011;67354;48.068;11.612;2023-02-28T04:39:22;7.70;;;4.53;;
78108;SDS011;67354;48.068;11.612;2023-02-28T04:41:48;9.55;;;5.03;;
78108;SDS011;67354;48.068;11.612;2023-02-28T04:44:14;7.63;;;4.30;;
78108;SDS011;67354;48.068;11.612;2023-02-28T04:46:40;8.18;;;5.65;;
78108;SDS011;67354;48.068;11.612;2023-02-28T04:49:05;12.02;;;5.60;;
78108;SDS011;67354;48.068;11.612;2023-02-28T04:51:30;11.33;;;5.87;;
78108;SDS011;67354;48.068;11.612;2023-02-28T04:53:56;10.45;;;5.53;;
78108;SDS011;67354;48.068;11.612;2023-02-28T04:56:22;11.30;;;5.23;;
78108;SDS011;67354;48.068;11.612;2023-02-28T04:58:47;10.90;;;5.82;;
78108;SDS011;67354;48.068;11.612;2023-02-28T05:01:18;8.80;;;5.50;;
78108;SDS011;67354;48.068;11.612;2023-02-28T05:03:45;8.70;;;5.00;;
78108;SDS011;67354;48.068;11.612;2023-02-28T05:06:11;10.10;;;5.75;;
78108;SDS011;67354;48.068;11.612;2023-02-28T05:08:37;12.38;;;6.35;;
78108;SDS011;67354;48.068;11.612;2023-02-28T05:11:03;10.48;;;5.90;;
78108;SDS011;67354;48.068;11.612;2023-02-28T05:13:28;11.75;;;5.38;;
78108;SDS011;67354;48.068;11.612;2023-02-28T05:15:54;11.52;;;5.95;;
78108;SDS011;67354;48.068;11.612;2023-02-28T05:18:20;10.80;;;6.57;;
78108;SDS011;67354;48.068;11.612;2023-02-28T05:20:46;9.73;;;5.97;;
78108;SDS011;67354;48.068;11.612;2023-02-28T05:23:11;10.33;;;6.37;;
78108;SDS011;67354;48.068;11.612;2023-02-28T05:25:37;8.45;;;6.10;;
78108;SDS011;67354;48.068;11.612;2023-02-28T05:28:03;12.25;;;7.13;;
78108;SDS011;67354;48.068;11.612;2023-02-28T05:30:29;9.65;;;6.25;;
78108;SDS011;67354;48.068;11.612;2023-02-28T05:32:54;11.02;;;7.05;;
78108;SDS011;67354;48.068;11.612;2023-02-28T05:35:20;13.65;;;7.38;;
78108;SDS011;67354;48.068;11.612;2023-02-28T05:37:45;11.20;;;6.63;;
78108;SDS011;67354;48.068;11.612;2023-02-28T05:40:11;10.50;;;5.73;;
78108;SDS011;67354;48.068;11.612;2023-02-28T05:42:36;11.75;;;7.18;;
78108;SDS011;67354;48.068;11.612;2023-02-28T05:45:03;13.18;;;6.38;;
78108;SDS011;67354;48.068;11.612;2023-02-28T05:47:28;14.05;;;7.55;;
78108;SDS011;67354;48.068;11.612;2023-02-28T05:49:54;11.60;;;6.43;;
78108;SDS011;67354;48.068;11.612;2023-02-28T05:52:19;10.03;;;6.33;;
78108;SDS011;67354;48.068;11.612;2023-02-28T05:54:46;10.98;;;6.35;;
78108;SDS011;67354;48.068;11.612;2023-02-28T05:57:11;11.18;;;6.80;;
78108;SDS011;67354;48.068;11.612;2023-02-28T05:59:37;14.00;;;7.47;;
78108;SDS011;67354;48.068;11.612;2023-02-28T06:02:04;14.55;;;8.13;;
78108;SDS011;67354;48.068;11.612;2023-02-28T06:04:30;14.38;;;7.43;;
78108;SDS011;67354;48.068;11.612;2023-02-28T06:06:56;12.13;;;7.37;;
78108;SDS011;67354;48.068;11.612;2023-02-28T06:09:22;12.95;;;7.22;;
78108;SDS011;67354;48.068;11.612;2023-02-28T06:11:48;11.52;;;7.43;;
78108;SDS011;67354;48.068;11.612;2023-02-28T06:14:17;15.65;;;8.73;;
78108;SDS011;67354;48.068;11.612;2023-02-28T06:16:43;14.57;;;7.55;;
78108;SDS011;67354;48.068;11.612;2023-02-28T06:19:09;14.23;;;7.85;;
78108;SDS011;67354;48.068;11.612;2023-02-28T06:21:35;13.05;;;7.45;;
78108;SDS011;67354;48.068;11.612;2023-02-28T06:24:00;13.35;;;7.88;;
78108;SDS011;67354;48.068;11.612;2023-02-28T06:26:26;18.30;;;8.43;;
78108;SDS011;67354;48.068;11.612;2023-02-28T06:28:52;14.82;;;8.32;;
78108;SDS011;67354;48.068;11.612;2023-02-28T06:31:18;13.57;;;6.57;;
78108;SDS011;67354;48.068;11.612;2023-02-28T06:33:44;12.88;;;7.22;;
78108;SDS011;67354;48.068;11.612;2023-02-28T06:36:10;14.52;;;8.15;;
78108;SDS011;67354;48.068;11.612;2023-02-28T06:38:37;15.52;;;9.32;;
78108;SDS011;67354;48.068;11.612;2023-02-28T06:41:03;14.93;;;7.93;;
78108;SDS011;67354;48.068;11.612;2023-02-28T06:43:29;16.45;;;9.38;;
78108;SDS011;67354;48.068;11.612;2023-02-28T06:46:00;14.82;;;8.90;;
78108;SDS011;67354;48.068;11.612;2023-02-28T06:48:27;12.88;;;6.95;;
78108;SDS011;67354;48.068;11.612;2023-02-28T06:51:00;15.43;;;8.55;;
78108;SDS011;67354;48.068;11.612;2023-02-28T06:53:27;16.02;;;8.10;;
78108;SDS011;67354;48.068;11.612;2023-02-28T06:55:52;13.70;;;8.60;;
78108;SDS011;67354;48.068;11.612;2023-02-28T06:58:18;14.00;;;9.30;;
78108;SDS011;67354;48.068;11.612;2023-02-28T07:00:44;17.33;;;9.02;;
78108;SDS011;67354;48.068;11.612;2023-02-28T07:03:10;18.65;;;8.57;;
78108;SDS011;67354;48.068;11.612;2023-02-28T07:05:36;13.75;;;7.53;;
78108;SDS011;67354;48.068;11.612;2023-02-28T07:08:03;15.52;;;7.35;;
78108;SDS011;67354;48.068;11.612;2023-02-28T07:10:29;11.00;;;6.30;;
78108;SDS011;67354;48.068;11.612;2023-02-28T07:12:54;11.88;;;6.38;;
78108;SDS011;67354;48.068;11.612;2023-02-28T07:15:20;16.52;;;9.25;;
78108;SDS011;67354;48.068;11.612;2023-02-28T07:17:45;18.38;;;6.90;;
78108;SDS011;67354;48.068;11.612;2023-02-28T07:20:11;13.67;;;7.33;;
78108;SDS011;67354;48.068;11.612;2023-02-28T07:22:36;14.93;;;8.05;;
78108;SDS011;67354;48.068;11.612;2023-02-28T07:25:02;16.25;;;9.45;;
78108;SDS011;67354;48.068;11.612;2023-02-28T07:27:27;16.23;;;9.98;;
78108;SDS011;67354;48.068;11.612;2023-02-28T07:29:53;15.82;;;9.07;;
78108;SDS011;67354;48.068;11.612;2023-02-28T07:32:19;17.08;;;9.95;;
78108;SDS011;67354;48.068;11.612;2023-02-28T07:34:45;18.52;;;9.55;;
78108;SDS011;67354;48.068;11.612;2023-02-28T07:37:10;16.52;;;9.07;;
78108;SDS011;67354;48.068;11.612;2023-02-28T07:39:35;16.58;;;9.32;;
78108;SDS011;67354;48.068;11.612;2023-02-28T07:42:04;18.50;;;10.37;;
78108;SDS011;67354;48.068;11.612;2023-02-28T07:44:31;15.02;;;8.93;;
78108;SDS011;67354;48.068;11.612;2023-02-28T07:46:56;16.35;;;10.50;;
78108;SDS011;67354;48.068;11.612;2023-02-28T07:49:21;13.77;;;8.30;;
78108;SDS011;67354;48.068;11.612;2023-02-28T07:51:47;15.63;;;8.93;;
78108;SDS011;67354;48.068;11.612;2023-02-28T07:54:12;13.93;;;8.07;;
78108;SDS011;67354;48.068;11.612;2023-02-28T07:56:37;17.03;;;9.40;;
78108;SDS011;67354;48.068;11.612;2023-02-28T07:59:05;17.63;;;9.48;;
78108;SDS011;67354;48.068;11.612;2023-02-28T08:01:31;10.30;;;6.83;;
78108;SDS011;67354;48.068;11.612;2023-02-28T08:03:56;12.63;;;8.40;;
78108;SDS011;67354;48.068;11.612;2023-02-28T08:06:22;18.88;;;10.05;;
78108;SDS011;67354;48.068;11.612;2023-02-28T08:08:48;20.63;;;11.20;;
78108;SDS011;67354;48.068;11.612;2023-02-28T08:11:14;17.23;;;9.77;;
78108;SDS011;67354;48.068;11.612;2023-02-28T08:13:41;14.57;;;9.20;;
78108;SDS011;67354;48.068;11.612;2023-02-28T08:16:08;17.35;;;9.75;;
78108;SDS011;67354;48.068;11.612;2023-02-28T08:18:34;18.88;;;11.15;;
78108;SDS011;67354;48.068;11.612;2023-02-28T08:21:04;13.60;;;8.73;;
78108;SDS011;67354;48.068;11.612;2023-02-28T08:23:31;16.52;;;9.05;;
78108;SDS011;67354;48.068;11.612;2023-02-28T08:25:58;17.40;;;10.90;;
78108;SDS011;67354;48.068;11.612;2023-02-28T08:28:23;16.00;;;9.98;;
78108;SDS011;67354;48.068;11.612;2023-02-28T08:30:49;16.97;;;10.03;;
78108;SDS011;67354;48.068;11.612;2023-02-28T08:33:14;20.63;;;9.82;;
78108;SDS011;67354;48.068;11.612;2023-02-28T08:35:40;14.97;;;8.77;;
78108;SDS011;67354;48.068;11.612;2023-02-28T08:38:05;11.57;;;8.53;;
78108;SDS011;67354;48.068;11.612;2023-02-28T08:40:30;16.80;;;11.33;;
78108;SDS011;67354;48.068;11.612;2023-02-28T08:42:56;13.02;;;7.65;;
78108;SDS011;67354;48.068;11.612;2023-02-28T08:45:21;13.25;;;8.90;;
78108;SDS011;67354;48.068;11.612;2023-02-28T08:47:46;20.13;;;10.50;;
78108;SDS011;67354;48.068;11.612;2023-02-28T08:50:12;20.30;;;11.87;;
78108;SDS011;67354;48.068;11.612;2023-02-28T08:52:41;18.33;;;11.18;;
78108;SDS011;67354;48.068;11.612;2023-02-28T08:55:07;15.18;;;9.07;;
78108;SDS011;67354;48.068;11.612;2023-02-28T08:57:34;16.67;;;8.70;;
78108;SDS011;67354;48.068;11.612;2023-02-28T08:59:59;18.42;;;11.18;;
78108;SDS011;67354;48.068;11.612;2023-02-28T09:02:26;17.08;;;10.73;;
78108;SDS011;67354;48.068;11.612;2023-02-28T09:04:51;22.87;;;11.13;;
78108;SDS011;67354;48.068;11.612;2023-02-28T09:07:17;15.60;;;9.75;;
78108;SDS011;67354;48.068;11.612;2023-02-28T09:09:42;20.48;;;12.10;;
78108;SDS011;67354;48.068;11.612;2023-02-28T09:12:19;12.93;;;9.40;;
78108;SDS011;67354;48.068;11.612;2023-02-28T09:14:45;13.57;;;8.40;;
78108;SDS011;67354;48.068;11.612;2023-02-28T09:17:10;16.85;;;11.10;;
78108;SDS011;67354;48.068;11.612;2023-02-28T09:19:36;22.20;;;12.00;;
78108;SDS011;67354;48.068;11.612;2023-02-28T09:22:02;16.40;;;10.85;;
78108;SDS011;67354;48.068;11.612;2023-02-28T09:24:27;20.88;;;11.00;;
78108;SDS011;67354;48.068;11.612;2023-02-28T09:26:52;16.38;;;10.27;;
78108;SDS011;67354;48.068;11.612;2023-02-28T09:29:18;18.02;;;10.05;;
78108;SDS011;67354;48.068;11.612;2023-02-28T09:31:43;19.33;;;10.60;;
78108;SDS011;67354;48.068;11.612;2023-02-28T09:34:09;20.15;;;11.02;;
78108;SDS011;67354;48.068;11.612;2023-02-28T09:36:35;18.30;;;11.88;;
78108;SDS011;67354;48.068;11.612;2023-02-28T09:39:02;17.00;;;10.55;;
78108;SDS011;67354;48.068;11.612;2023-02-28T09:41:28;18.85;;;9.70;;
78108;SDS011;67354;48.068;11.612;2023-02-28T09:44:15;16.73;;;10.05;;
78108;SDS011;67354;48.068;11.612;2023-02-28T09:46:47;18.15;;;10.80;;
78108;SDS011;67354;48.068;11.612;2023-02-28T09:49:15;15.75;;;8.65;;
78108;SDS011;67354;48.068;11.612;2023-02-28T09:54:15;17.25;;;10.57;;
78108;SDS011;67354;48.068;11.612;2023-02-28T09:56:45;16.10;;;11.07;;
78108;SDS011;67354;48.068;11.612;2023-02-28T09:59:36;19.23;;;12.68;;
78108;SDS011;67354;48.068;11.612;2023-02-28T10:02:21;14.95;;;8.30;;
78108;SDS011;67354;48.068;11.612;2023-02-28T10:04:59;18.60;;;11.10;;
78108;SDS011;67354;48.068;11.612;2023-02-28T10:10:37;19.65;;;12.02;;
78108;SDS011;67354;48.068;11.612;2023-02-28T10:13:27;17.23;;;11.25;;
78108;SDS011;67354;48.068;11.612;2023-02-28T10:16:01;14.88;;;9.55;;
78108;SDS011;67354;48.068;11.612;2023-02-28T10:18:33;17.95;;;10.85;;
78108;SDS011;67354;48.068;11.612;2023-02-28T10:21:04;19.75;;;11.68;;
78108;SDS011;67354;48.068;11.612;2023-02-28T10:23:34;20.67;;;12.20;;
78108;SDS011;67354;48.068;11.612;2023-02-28T10:26:04;16.35;;;9.38;;
78108;SDS011;67354;48.068;11.612;2023-02-28T10:28:35;20.30;;;12.23;;
78108;SDS011;67354;48.068;11.612;2023-02-28T10:31:00;18.85;;;9.25;;
78108;SDS011;67354;48.068;11.612;2023-02-28T10:33:33;15.32;;;9.50;;
78108;SDS011;67354;48.068;11.612;2023-02-28T10:35:59;20.60;;;11.43;;
78108;SDS011;67354;48.068;11.612;2023-02-28T10:38:26;15.88;;;9.90;;
78108;SDS011;67354;48.068;11.612;2023-02-28T10:41:03;17.38;;;10.65;;
78108;SDS011;67354;48.068;11.612;2023-02-28T10:43:36;22.50;;;12.93;;
78108;SDS011;67354;48.068;11.612;2023-02-28T10:46:11;18.52;;;11.32;;
78108;SDS011;67354;48.068;11.612;2023-02-28T10:49:14;17.50;;;11.02;;
78108;SDS011;67354;48.068;11.612;2023-02-28T10:51:38;21.67;;;10.65;;
78108;SDS011;67354;48.068;11.612;2023-02-28T10:54:04;21.88;;;12.05;;
78108;SDS011;67354;48.068;11.612;2023-02-28T10:56:31;17.85;;;9.90;;
78108;SDS011;67354;48.068;11.612;2023-02-28T10:59:22;20.52;;;11.70;;
78108;SDS011;67354;48.068;11.612;2023-02-28T11:01:55;27.17;;;12.02;;
78108;SDS011;67354;48.068;11.612;2023-02-28T11:07:01;17.80;;;12.57;;
78108;SDS011;67354;48.068;11.612;2023-02-28T11:09:30;20.98;;;12.98;;
78108;SDS011;67354;48.068;11.612;2023-02-28T11:11:59;18.35;;;11.20;;
78108;SDS011;67354;48.068;11.612;2023-02-28T11:14:29;13.27;;;8.20;;
78108;SDS011;67354;48.068;11.612;2023-02-28T11:16:58;15.85;;;9.68;;
78108;SDS011;67354;48.068;11.612;2023-02-28T11:19:44;14.18;;;9.38;;
78108;SDS011;67354;48.068;11.612;2023-02-28T11:22:11;13.48;;;8.38;;
78108;SDS011;67354;48.068;11.612;2023-02-28T11:24:44;17.33;;;9.35;;
78108;SDS011;67354;48.068;11.612;2023-02-28T11:30:33;13.65;;;9.75;;
78108;SDS011;67354;48.068;11.612;2023-02-28T11:36:14;9.32;;;7.43;;
78108;SDS011;67354;48.068;11.612;2023-02-28T11:38:41;17.45;;;10.23;;
78108;SDS011;67354;48.068;11.612;2023-02-28T11:41:14;15.02;;;9.05;;
78108;SDS011;67354;48.068;11.612;2023-02-28T11:43:57;18.17;;;11.80;;
78108;SDS011;67354;48.068;11.612;2023-02-28T11:49:42;12.90;;;7.78;;
78108;SDS011;67354;48.068;11.612;2023-02-28T11:52:38;14.45;;;8.45;;
78108;SDS011;67354;48.068;11.612;2023-02-28T11:55:19;12.95;;;8.13;;
78108;SDS011;67354;48.068;11.612;2023-02-28T12:05:29;19.30;;;11.07;;
78108;SDS011;67354;48.068;11.612;2023-02-28T12:26:44;11.93;;;8.02;;
78108;SDS011;67354;48.068;11.612;2023-02-28T12:31:52;18.23;;;10.98;;
78108;SDS011;67354;48.068;11.612;2023-02-28T12:34:37;15.90;;;9.98;;
78108;SDS011;67354;48.068;11.612;2023-02-28T12:37:06;19.27;;;11.50;;
78108;SDS011;67354;48.068;11.612;2023-02-28T12:39:36;14.82;;;9.02;;
78108;SDS011;67354;48.068;11.612;2023-02-28T12:42:12;12.07;;;8.30;;
78108;SDS011;67354;48.068;11.612;2023-02-28T12:44:44;17.58;;;12.27;;
78108;SDS011;67354;48.068;11.612;2023-02-28T12:47:14;21.90;;;12.30;;
78108;SDS011;67354;48.068;11.612;2023-02-28T12:52:25;15.02;;;9.43;;
78108;SDS011;67354;48.068;11.612;2023-02-28T12:55:08;19.33;;;12.02;;
78108;SDS011;67354;48.068;11.612;2023-02-28T12:57:56;16.80;;;9.77;;
78108;SDS011;67354;48.068;11.612;2023-02-28T13:00:33;18.38;;;11.48;;
78108;SDS011;67354;48.068;11.612;2023-02-28T13:10:44;17.90;;;12.32;;
78108;SDS011;67354;48.068;11.612;2023-02-28T13:13:20;17.17;;;11.60;;
78108;SDS011;67354;48.068;11.612;2023-02-28T13:16:00;17.83;;;10.63;;
78108;SDS011;67354;48.068;11.612;2023-02-28T13:18:34;20.13;;;12.75;;
78108;SDS011;67354;48.068;11.612;2023-02-28T13:21:05;20.65;;;13.05;;
78108;SDS011;67354;48.068;11.612;2023-02-28T13:26:06;18.13;;;11.10;;
78108;SDS011;67354;48.068;11.612;2023-02-28T13:31:15;17.50;;;11.57;;
78108;SDS011;67354;48.068;11.612;2023-02-28T13:39:03;12.98;;;9.00;;
78108;SDS011;67354;48.068;11.612;2023-02-28T13:41:46;16.17;;;9.90;;
78108;SDS011;67354;48.068;11.612;2023-02-28T13:44:16;16.48;;;10.43;;
78108;SDS011;67354;48.068;11.612;2023-02-28T13:57:06;16.50;;;11.85;;
78108;SDS011;67354;48.068;11.612;2023-02-28T13:59:39;21.17;;;12.23;;
78108;SDS011;67354;48.068;11.612;2023-02-28T14:04:56;16.33;;;11.57;;
78108;SDS011;67354;48.068;11.612;2023-02-28T14:07:26;15.52;;;10.18;;
78108;SDS011;67354;48.068;11.612;2023-02-28T14:09:57;18.30;;;10.60;;
78108;SDS011;67354;48.068;11.612;2023-02-28T14:18:05;18.02;;;12.68;;
78108;SDS011;67354;48.068;11.612;2023-02-28T14:31:51;17.05;;;10.52;;
78108;SDS011;67354;48.068;11.612;2023-02-28T14:34:30;15.40;;;10.13;;
78108;SDS011;67354;48.068;11.612;2023-02-28T14:37:11;19.95;;;11.50;;
78108;SDS011;67354;48.068;11.612;2023-02-28T14:39:41;17.73;;;11.20;;
78108;SDS011;67354;48.068;11.612;2023-02-28T14:42:28;19.45;;;11.55;;
78108;SDS011;67354;48.068;11.612;2023-02-28T14:45:41;18.20;;;11.88;;
78108;SDS011;67354;48.068;11.612;2023-02-28T14:48:01;16.65;;;10.05;;
78108;SDS011;67354;48.068;11.612;2023-02-28T14:50:32;17.63;;;10.98;;
78108;SDS011;67354;48.068;11.612;2023-02-28T14:52:59;16.67;;;10.82;;
78108;SDS011;67354;48.068;11.612;2023-02-28T14:55:35;17.08;;;11.38;;
78108;SDS011;67354;48.068;11.612;2023-02-28T14:58:01;20.08;;;11.98;;
78108;SDS011;67354;48.068;11.612;2023-02-28T15:00:34;18.73;;;11.52;;
78108;SDS011;67354;48.068;11.612;2023-02-28T15:03:17;13.65;;;9.73;;
78108;SDS011;67354;48.068;11.612;2023-02-28T15:05:52;15.00;;;9.82;;
78108;SDS011;67354;48.068;11.612;2023-02-28T15:08:20;17.77;;;11.05;;
78108;SDS011;67354;48.068;11.612;2023-02-28T15:10:57;14.73;;;9.98;;
78108;SDS011;67354;48.068;11.612;2023-02-28T15:13:33;19.10;;;11.90;;
78108;SDS011;67354;48.068;11.612;2023-02-28T15:16:12;18.13;;;10.43;;
78108;SDS011;67354;48.068;11.612;2023-02-28T15:21:19;16.88;;;9.82;;
78108;SDS011;67354;48.068;11.612;2023-02-28T15:23:49;17.15;;;11.35;;
78108;SDS011;67354;48.068;11.612;2023-02-28T15:26:17;17.55;;;11.35;;
78108;SDS011;67354;48.068;11.612;2023-02-28T15:28:45;21.90;;;11.85;;
78108;SDS011;67354;48.068;11.612;2023-02-28T15:31:27;16.52;;;11.27;;
78108;SDS011;67354;48.068;11.612;2023-02-28T15:33:58;18.95;;;12.00;;
78108;SDS011;67354;48.068;11.612;2023-02-28T15:36:29;14.48;;;8.98;;
78108;SDS011;67354;48.068;11.612;2023-02-28T15:38:58;21.17;;;11.32;;
78108;SDS011;67354;48.068;11.612;2023-02-28T15:41:25;14.60;;;10.20;;
78108;SDS011;67354;48.068;11.612;2023-02-28T15:46:41;19.02;;;10.85;;
78108;SDS011;67354;48.068;11.612;2023-02-28T15:49:19;16.42;;;11.75;;
78108;SDS011;67354;48.068;11.612;2023-02-28T15:51:46;17.33;;;11.52;;
78108;SDS011;67354;48.068;11.612;2023-02-28T15:54:15;13.77;;;10.57;;
78108;SDS011;67354;48.068;11.612;2023-02-28T15:56:53;19.80;;;11.05;;
78108;SDS011;67354;48.068;11.612;2023-02-28T15:59:22;20.42;;;12.30;;
78108;SDS011;67354;48.068;11.612;2023-02-28T16:07:38;16.30;;;11.18;;
78108;SDS011;67354;48.068;11.612;2023-02-28T16:10:05;19.30;;;10.98;;
78108;SDS011;67354;48.068;11.612;2023-02-28T16:12:32;15.55;;;9.15;;
78108;SDS011;67354;48.068;11.612;2023-02-28T16:15:02;16.58;;;10.68;;
78108;SDS011;67354;48.068;11.612;2023-02-28T16:17:35;18.30;;;10.50;;
78108;SDS011;67354;48.068;11.612;2023-02-28T16:20:23;14.80;;;10.40;;
78108;SDS011;67354;48.068;11.612;2023-02-28T16:22:52;16.90;;;11.13;;
78108;SDS011;67354;48.068;11.612;2023-02-28T16:25:20;16.67;;;10.40;;
78108;SDS011;67354;48.068;11.612;2023-02-28T16:27:52;16.95;;;11.55;;
78108;SDS011;67354;48.068;11.612;2023-02-28T16:30:26;18.73;;;10.00;;
78108;SDS011;67354;48.068;11.612;2023-02-28T16:32:53;19.75;;;11.15;;
78108;SDS011;67354;48.068;11.612;2023-02-28T16:35:20;21.55;;;12.18;;
78108;SDS011;67354;48.068;11.612;2023-02-28T16:37:46;20.98;;;13.05;;
78108;SDS011;67354;48.068;11.612;2023-02-28T16:40:15;17.80;;;11.80;;
78108;SDS011;67354;48.068;11.612;2023-02-28T16:42:42;23.65;;;13.80;;
78108;SDS011;67354;48.068;11.612;2023-02-28T16:45:14;18.67;;;13.07;;
78108;SDS011;67354;48.068;11.612;2023-02-28T16:47:43;20.83;;;13.82;;
78108;SDS011;67354;48.068;11.612;2023-02-28T16:50:12;23.75;;;13.98;;
78108;SDS011;67354;48.068;11.612;2023-02-28T16:52:41;20.17;;;13.32;;